METAR Data
IDs: Format: Raw Decoded Include TAF

Data at: 0853 UTC 26 Jan 2020

KSUE 260756Z AUTO 29008KT 10SM OVC034 00/M01 A2980 RMK AO2 UPB14E24B49E51SNE14B24E49 SLP100 P0000 T00001006 FZRANO $
KSUE 260656Z AUTO 30008KT 10SM -SN SCT034 OVC050 00/M01 A2981 RMK AO2 UPB45E53SNE45B53 SLP101 P0000 T00001006 FZRANO $
KSUE 260646Z AUTO 30008KT 9SM UP FEW004 OVC050 00/M01 A2981 RMK AO2 UPB45SNE45 P0000 FZRANO $
KSUE 260556Z AUTO 30007KT 9SM -SN BKN004 BKN010 OVC030 00/M01 A2980 RMK AO2 RAB02E09SNB09 SLP099 P0000 60000 T00001006 10006 20000 400170000 50002 FZRANO $
KSUE 260541Z AUTO 30008KT 6SM -SN BR SCT004 BKN010 OVC028 00/M01 A2980 RMK AO2 RAB02E09SNB09 CIG 008V011 P0000 FZRANO $
KSUE 260456Z AUTO 30007KT 10SM FEW012 OVC026 01/00 A2980 RMK AO2 SLP099 T00060000 FZRANO $
KSUE 260410Z AUTO 29007KT 10SM SCT009 OVC017 01/00 A2980 RMK AO2 FZRANO $
KSUE 260356Z AUTO 28005KT 10SM SCT009 BKN014 OVC019 01/00 A2980 RMK AO2 UPE01B26E34RAB01E50SNB11E20 SLP096 P0000 T00060000 FZRANO $
KSUE 260330Z AUTO 29004KT 10SM UP FEW005 OVC017 01/00 A2980 RMK AO2 UPE01B26RAB01E26SNB11E20 P0000 FZRANO $
KSUE 260256Z AUTO 31005KT 9SM UP OVC005 01/01 A2980 RMK AO2 UPE18B54RAB18E49SNB31E40 SLP097 P0000 60000 T00060006 58000 FZRANO $
KSUE 260214Z AUTO 29005KT 4SM UP BR BKN005 OVC011 01/01 A2980 RMK AO2 P0000 FZRANO $
KSUE 260156Z AUTO 28005KT 5SM UP BR FEW005 OVC011 01/01 A2980 RMK AO2 RAE28UPB02E05B52 SLP097 P0000 T00060006 FZRANO $
KSUE 260056Z AUTO 29005KT 5SM -RA BR SCT003 OVC007 01/00 A2980 RMK AO2 UPE27B47E49RAB49 SLPNO P0000 T00060000 FZRANO $
KSUE 260041Z AUTO 28005KT 5SM BR BKN003 OVC007 01/00 A2980 RMK AO2 UPE27 P0000 FZRANO $
KSUE 260022Z AUTO 29004KT 2 1/2SM UP BR BKN003 OVC007 00/00 A2980 RMK AO2 P0000 FZRANO $
KSUE 252356Z AUTO 28003KT 4SM UP BR BKN003 OVC018 00/00 A2980 RMK AO2 UPB54 SLPNO P0000 60008 T00000000 10006 20000 51007 FZRANO $
KSUE 252342Z AUTO 28003KT 6SM BR SCT003 OVC018 00/00 A2980 RMK AO2 FZRANO $
KSUE 252256Z AUTO 33003KT 8SM FEW003 OVC012 00/00 A2979 RMK AO2 RAE50UPB04E15B50E56 SLP095 P0000 T00000000 FZRANO $
KSUE 252239Z AUTO 32004KT 6SM -RA BR FEW003 OVC010 01/00 A2979 RMK AO2 UPB04E15 P0000 FZRANO $
KSUE 252156Z AUTO 34006KT 8SM -RA OVC003 01/00 A2978 RMK AO2 RAB49 SLP093 P0000 T00060000 FZRANO $
KSUE 252125Z AUTO 34007KT 5SM BR OVC003 01/00 A2978 RMK AO2 FZRANO $
KSUE 252112Z AUTO 34006KT 2SM BR OVC003 01/00 A2978 RMK AO2 FZRANO $
KSUE 252108Z AUTO 34008KT 1SM BR OVC003 01/00 A2978 RMK AO2 FZRANO RVRNO $
KSUE 252056Z AUTO 34007KT 1/2SM FG OVC003 01/00 A2977 RMK AO2 RAB12E22 SLPNO P0002 60008 T00060000 53003 FZRANO RVRNO $
KSUE 252041Z AUTO 35006KT 1/2SM FG OVC003 01/00 A2977 RMK AO2 RAB12E22 P0002 FZRANO RVRNO $
KSUE 251956Z AUTO 01008KT 1/4SM FG OVC003 01/00 A2976 RMK AO2 SLP086 P0002 T00060000 FZRANO RVRNO $
KSUE 251856Z AUTO 35012KT 1/4SM FG OVC003 01/00 A2976 RMK AO2 SLP084 P0004 T00060000 FZRANO RVRNO $
KSUE 251830Z AUTO 01010KT 1/4SM FG OVC003 01/00 A2976 RMK AO2 P0002 FZRANO RVRNO $
KSUE 251812Z AUTO 36012KT 1/2SM FG OVC003 01/00 A2976 RMK AO2 P0002 FZRANO RVRNO $
KSUE 251756Z AUTO 36011KT 1SM BR OVC003 01/00 A2977 RMK AO2 RAE50UPB1657E1659 SLP087 P0007 60012 T00060000 58005 FZRANO RVRNO $
KSUE 251722Z AUTO 34005KT 1SM -RA BR OVC003 01/01 A2978 RMK AO2 UPB1657E1659 P0003 FZRANO RVRNO $
KSUE 251704Z AUTO 34005KT 2SM -RA BR BKN003 OVC007 01/01 A2978 RMK AO2 UPB1657E1659 P0001 FZRANO $
KSUE 251656Z AUTO 33004KT 1SM -RA BR BKN003 OVC007 02/01 A2978 RMK AO2 UPB17E47RAB47 SLP091 P0003 T00170011 FZRANO RVRNO $
KSUE 251647Z AUTO 34004KT 3/4SM -RA BR BKN003 OVC007 01/01 A2978 RMK AO2 UPB17E47RAB47 CIG 002V006 P0002 FZRANO RVRNO $
KSUE 251633Z AUTO 33003KT 1/2SM UP FG SCT003 OVC007 01/01 A2979 RMK AO2 UPB17 P0000 FZRANO RVRNO $
KSUE 251620Z AUTO 33003KT 3/4SM UP BR BKN003 OVC007 01/01 A2979 RMK AO2 UPB17 P0000 FZRANO RVRNO $
KSUE 251616Z AUTO 33003KT 1 1/2SM BR BKN003 OVC007 01/01 A2979 RMK AO2 FZRANO $
KSUE 251609Z AUTO 32003KT 3SM BR BKN003 OVC007 01/01 A2979 RMK AO2 FZRANO $
KSUE 251556Z AUTO 31003KT 1 1/4SM BR OVC003 01/01 A2978 RMK AO2 RAB29E56 SLP092 P0002 T00110006 FZRANO $
KSUE 251553Z AUTO VRB04KT 1SM -RA BR OVC003 01/01 A2978 RMK AO2 RAB29 P0002 FZRANO RVRNO $
KSUE 251548Z AUTO 32004KT 1/2SM -RA FG OVC003 01/01 A2978 RMK AO2 RAB29 P0002 FZRANO RVRNO $
KSUE 251456Z AUTO 35005KT 1/4SM FG OVC003 01/01 A2977 RMK AO2 SLP086 T00060006 50003 FZRANO RVRNO $
KSUE 251437Z AUTO 02003KT 1/4SM FG OVC003 01/00 A2977 RMK AO2 FZRANO RVRNO $
KSUE 251426Z AUTO 00000KT 3/4SM BR OVC003 01/00 A2977 RMK AO2 FZRANO RVRNO $
KSUE 251419Z AUTO 00000KT 1 3/4SM BR OVC003 01/00 A2977 RMK AO2 FZRANO $
KSUE 251356Z AUTO 34003KT 3SM BR OVC003 00/00 A2977 RMK AO2 SLP089 T00000000 FZRANO $
KSUE 251340Z AUTO 33004KT 2SM BR OVC003 00/00 A2977 RMK AO2 FZRANO $
KSUE 251330Z AUTO 33004KT 1SM BR OVC003 00/00 A2977 RMK AO2 FZRANO RVRNO $
KSUE 251312Z AUTO 35004KT 1/2SM FG OVC003 A2976 RMK AO2 FZRANO RVRNO $
KSUE 251256Z AUTO 01004KT 1/4SM FG OVC003 A2976 RMK AO2 SLPNO FZRANO RVRNO $
KSUE 251156Z AUTO 36004KT 1/4SM FG OVC003 A2975 RMK AO2 SLPNO P0001 60018 70032 53002 FZRANO RVRNO $
KSUE 251147Z AUTO 35005KT 1/2SM FG OVC003 A2975 RMK AO2 P0001 FZRANO RVRNO $
KSUE 251141Z AUTO 36004KT 1SM BR OVC003 00/00 A2975 RMK AO2 P0001 FZRANO RVRNO $
KSUE 251136Z AUTO 35004KT 2SM BR OVC003 00/00 A2975 RMK AO2 P0001 FZRANO $
KSUE 251056Z AUTO 02003KT 8SM OVC003 00/00 A2975 RMK AO2 UPE04 SLP080 P0001 T00000000 FZRANO $
KSUE 250956Z AUTO 35003KT 5SM UP BR OVC003 00/M01 A2975 RMK AO2 UPB49SNE49 SLP080 P0004 T00001006 FZRANO $
KSUE 250953Z AUTO 34003KT 4SM UP BR OVC003 00/00 A2975 RMK AO2 UPB49SNE49 P0004 FZRANO $
KSUE 250937Z AUTO 35005KT 2SM -SN BR OVC003 00/00 A2975 RMK AO2 P0003 FZRANO $
KSUE 250921Z AUTO 01004KT 3SM -SN OVC003 A2975 RMK AO2 P0002 FZRANO $
KSUE 250912Z AUTO 01004KT 1 1/4SM -SN OVC003 A2975 RMK AO2 P0002 FZRANO $
KSUE 250856Z AUTO 02004KT 3/4SM -SN OVC003 A2976 RMK AO2 SLPNO P0004 60012 57003 FZRANO RVRNO $
KSUE 250756Z AUTO 04004KT 3/4SM -SN BR OVC003 00/M01 A2977 RMK AO2 SLP087 P0005 T00001006 FZRANO RVRNO $
KSUE 250750Z AUTO 03005KT 1SM -SN BR OVC003 00/M01 A2977 RMK AO2 P0004 FZRANO RVRNO $
KSUE 250656Z AUTO 04004KT 1 3/4SM -SN BR OVC003 00/M01 A2977 RMK AO2 SLP089 P0003 T00001006 FZRANO $
KSUE 250648Z AUTO 04005KT 1 1/4SM -SN BR OVC003 00/M01 A2977 RMK AO2 P0003 FZRANO $
KSUE 250641Z AUTO 04005KT 3/4SM -SN BR OVC003 00/00 A2977 RMK AO2 P0003 FZRANO RVRNO $
KSUE 250629Z AUTO 04005KT 1/4SM +SN FG OVC003 00/00 A2978 RMK AO2 P0002 FZRANO RVRNO $
KSUE 250611Z AUTO 03004KT 1/2SM -SN FG OVC003 00/00 A2978 RMK AO2 P0002 FZRANO RVRNO $
KSUE 250556Z AUTO 04005KT 1SM -SN BR OVC003 01/00 A2979 RMK AO2 RAB08E11UPB11E41SNE08B41 SLP093 P0001 60004 T00060000 10011 20000 400170000 55008 FZRANO RVRNO $
KSUE 250552Z AUTO 04005KT 1 1/4SM -SN BR OVC003 01/00 A2979 RMK AO2 RAB08E11UPB11E41SNE08B41 P0001 400170000 FZRANO $
KSUE 250522Z AUTO 04006KT 2SM UP BR OVC003 00/00 A2980 RMK AO2 RAB08E11UPB11SNE08 P0001 FZRANO $
KSUE 250456Z AUTO 04004KT 1 3/4SM -SN BR OVC003 01/00 A2980 RMK AO2 UPE13RAB13E24SNB24 SLP099 P0000 T00060000 FZRANO $
KSUE 250428Z AUTO 05005KT 1 3/4SM -SN BR OVC003 01/00 A2981 RMK AO2 UPE13RAB13E24SNB24 P0000 FZRANO $
KSUE 250356Z AUTO 04006KT 3SM UP BR OVC003 01/01 A2981 RMK AO2 RAE34UPB05E07B34 SLP102 P0001 T00110006 FZRANO $
KSUE 250337Z AUTO 04006KT 2 1/2SM UP BR OVC003 01/01 A2982 RMK AO2 RAE34UPB05E07B34 P0000 FZRANO $
KSUE 250325Z AUTO 04007KT 1 3/4SM -RA BR OVC003 01/01 A2982 RMK AO2 UPB05E07 P0000 FZRANO $
KSUE 250256Z AUTO 04004KT 2SM -RA BR OVC003 01/01 A2984 RMK AO2 SLP110 P0001 60002 T00110006 56012 FZRANO $
KSUE 250156Z AUTO 05006KT 5SM -RA BR OVC003 01/01 A2984 RMK AO2 UPB16E39 SLP113 P0001 T00110006 FZRANO $
KSUE 250056Z AUTO 01005KT 3SM -RA BR OVC003 01/01 A2986 RMK AO2 SLP117 P0000 T00110006 FZRANO $
KSUE 250038Z AUTO 04004KT 2 1/2SM -RA BR OVC003 01/01 A2987 RMK AO2 P0000 FZRANO $
KSUE 242356Z AUTO 05004KT 3SM -RA BR OVC003 01/01 A2987 RMK AO2 RAE24B52SNB24E52 SLP123 P0001 60004 T00060006 10017 20006 58003 FZRANO $
KSUE 242340Z AUTO VRB04KT 2SM -SN BR OVC003 01/01 A2988 RMK AO2 RAE24SNB24 P0001 FZRANO $
KSUE 242256Z AUTO 06007KT 3SM -RA BR OVC003 02/01 A2988 RMK AO2 SLP125 P0000 T00170011 FZRANO $
KSUE 242236Z AUTO 05008KT 3SM -RA BR OVC003 02/01 A2988 RMK AO2 P0000 FZRANO $
KSUE 242156Z AUTO 05006KT 2SM -RA BR OVC003 02/01 A2988 RMK AO2 UPB00E49RAB49 SLP126 P0001 T00170011 FZRANO $
KSUE 242138Z AUTO 04007KT 1 1/4SM UP BR OVC003 02/01 A2989 RMK AO2 UPB00 P0000 FZRANO $
KSUE 242116Z AUTO 04006KT 1SM UP BR OVC003 02/01 A2990 RMK AO2 UPB00 P0000 FZRANO RVRNO $
KSUE 242056Z AUTO 04006KT 1 1/4SM BR OVC003 02/01 A2991 RMK AO2 UPE04B23E53RAB04E23 SLP133 P0000 60002 T00170011 56018 FZRANO $